Time;durP1;ratioP1;P1;durP2;ratioP2;P2;SDS_P1;SDS_P2;PMS_P1;PMS_P2;Temp;Humidity;BMP_temperature;BMP_pressure;BME280_temperature;BME280_humidity;BME280_pressure;Samples;Min_cycle;Max_cycle;Signal;HPM_P1;HPM_P2
2022/10/18 00:00:08;;;;;;;9.63;6.72;;;;;;;19.27;65.25;102436.75;5049935;28;20041;-70
2022/10/18 00:02:36;;;;;;;9.20;7.45;;;;;;;19.26;64.95;102438.63;5030616;28;20041;-70
2022/10/18 00:05:03;;;;;;;9.35;7.40;;;;;;;19.27;64.86;102442.22;5030954;28;20096;-70
2022/10/18 00:07:30;;;;;;;11.00;7.75;;;;;;;19.26;64.92;102443.19;5030967;28;20115;-70
2022/10/18 00:09:57;;;;;;;17.85;8.23;;;;;;;19.25;64.92;102436.03;5044886;28;20045;-70
2022/10/18 00:12:23;;;;;;;12.80;7.57;;;;;;;19.24;64.97;102426.97;5050553;28;20107;-70
2022/10/18 00:14:50;;;;;;;10.82;7.13;;;;;;;19.25;64.87;102426.00;5050750;28;20049;-70
2022/10/18 00:17:17;;;;;;;8.23;7.30;;;;;;;19.25;65.03;102422.41;5050454;28;20099;-69
2022/10/18 00:19:45;;;;;;;8.88;6.90;;;;;;;19.23;64.74;102424.38;5051467;28;20033;-70
2022/10/18 00:22:15;;;;;;;14.60;7.45;;;;;;;19.25;65.13;102427.84;5052975;28;20120;-70
2022/10/18 00:24:43;;;;;;;10.88;7.53;;;;;;;19.24;65.07;102426.97;5054513;28;20037;-70
2022/10/18 00:27:10;;;;;;;10.40;6.88;;;;;;;19.24;65.25;102426.97;5052612;28;20107;-69
2022/10/18 00:29:36;;;;;;;12.82;7.55;;;;;;;19.26;64.92;102424.13;5052882;28;20051;-70
2022/10/18 00:32:03;;;;;;;9.88;6.47;;;;;;;19.25;65.32;102416.94;5054113;28;20114;-69
2022/10/18 00:34:30;;;;;;;10.10;6.72;;;;;;;19.21;65.17;102423.66;5054219;28;20049;-70
2022/10/18 00:36:57;;;;;;;18.85;8.43;;;;;;;19.19;65.14;102417.47;5053490;28;20095;-69
2022/10/18 00:39:23;;;;;;;10.88;7.15;;;;;;;19.19;65.17;102420.19;5054021;28;20087;-70
2022/10/18 00:41:50;;;;;;;9.90;7.07;;;;;;;19.19;65.17;102423.78;5054189;28;20130;-70
2022/10/18 00:44:17;;;;;;;9.90;7.25;;;;;;;19.21;65.05;102427.22;5054088;28;20047;-69
2022/10/18 00:46:46;;;;;;;8.48;6.68;;;;;;;19.24;65.40;102428.84;5053687;28;20037;-70
2022/10/18 00:49:23;;;;;;;8.68;6.45;;;;;;;19.26;65.17;102426.84;5053827;28;20053;-70
2022/10/18 00:51:59;;;;;;;8.40;7.00;;;;;;;19.27;65.15;102428.59;5053975;28;20461;-69
2022/10/18 00:54:28;;;;;;;10.65;7.50;;;;;;;19.28;65.00;102438.50;5052629;28;20071;-70
2022/10/18 00:56:55;;;;;;;10.57;7.30;;;;;;;19.29;65.24;102434.78;5053264;28;20061;-69
2022/10/18 00:59:22;;;;;;;8.93;7.15;;;;;;;19.28;65.39;102427.59;5053379;28;20095;-70
2022/10/18 01:01:49;;;;;;;10.65;7.70;;;;;;;19.29;65.17;102429.31;5053041;28;20048;-70
2022/10/18 01:04:18;;;;;;;8.35;7.05;;;;;;;19.30;65.19;102436.50;5053646;28;20041;-68
2022/10/18 01:07:14;;;;;;;12.18;7.28;;;;;;;19.27;65.22;102434.91;5052918;28;20053;-69
2022/10/18 01:09:46;;;;;;;10.77;7.20;;;;;;;19.27;65.15;102432.19;5053215;28;20059;-69
2022/10/18 01:12:48;;;;;;;7.60;6.28;;;;;;;19.26;65.25;102433.16;5052875;28;20311;-69
2022/10/18 01:15:20;;;;;;;10.30;7.25;;;;;;;19.25;65.27;102434.16;5053418;28;20099;-69
2022/10/18 01:18:10;;;;;;;8.82;6.47;;;;;;;19.24;65.20;102439.72;5053007;28;20511;-68
2022/10/18 01:21:08;;;;;;;10.13;6.47;;;;;;;19.24;65.23;102442.47;5053388;28;20037;-68
2022/10/18 01:24:32;;;;;;;8.80;7.85;;;;;;;19.20;65.28;102439.13;5053109;28;20037;-69
2022/10/18 01:27:28;;;;;;;11.85;7.00;;;;;;;19.21;65.12;102445.44;5010997;28;20100;-69
2022/10/18 01:30:19;;;;;;;8.02;7.05;;;;;;;19.21;65.24;102448.16;5010992;28;20081;-68
2022/10/18 01:32:52;;;;;;;10.65;7.40;;;;;;;19.21;65.16;102449.03;5044670;28;20099;-69
2022/10/18 01:35:43;;;;;;;10.90;7.72;;;;;;;19.20;65.58;102441.84;5043477;28;20120;-68
2022/10/18 01:38:16;;;;;;;9.60;7.78;;;;;;;19.22;65.06;102444.44;5053000;28;20102;-69
2022/10/18 01:40:46;;;;;;;14.80;8.07;;;;;;;19.23;65.56;102440.72;5052801;28;20312;-68
2022/10/18 01:43:14;;;;;;;11.95;7.72;;;;;;;19.23;65.51;102441.59;5052689;28;20542;-68
2022/10/18 01:45:41;;;;;;;10.32;6.93;;;;;;;19.23;65.24;102438.88;5052125;28;20463;-69
2022/10/18 01:48:10;;;;;;;8.80;7.30;;;;;;;19.23;65.20;102441.59;5052474;28;20500;-68
2022/10/18 01:50:37;;;;;;;9.27;7.45;;;;;;;19.24;65.33;102437.00;5052626;28;20099;-69
2022/10/18 01:53:03;;;;;;;9.63;7.60;;;;;;;19.25;65.45;102441.47;5052553;28;20099;-69
2022/10/18 01:55:50;;;;;;;9.88;7.10;;;;;;;19.25;65.28;102438.75;5052377;28;20491;-69
2022/10/18 01:58:39;;;;;;;14.43;8.20;;;;;;;19.25;65.65;102436.88;5052611;28;20091;-69
2022/10/18 02:01:16;;;;;;;10.02;7.43;;;;;;;19.26;65.32;102445.91;5052409;28;20044;-68
2022/10/18 02:03:46;;;;;;;9.57;6.82;;;;;;;19.26;65.39;102440.47;5052324;28;20491;-69
2022/10/18 02:06:21;;;;;;;12.13;7.32;;;;;;;19.25;65.30;102445.06;5051999;28;20503;-69
2022/10/18 02:09:01;;;;;;;9.50;7.63;;;;;;;19.26;65.47;102443.19;5052416;28;20041;-69
2022/10/18 02:11:31;;;;;;;9.57;7.20;;;;;;;19.27;65.12;102434.91;5052202;28;20149;-69
2022/10/18 02:14:18;;;;;;;8.93;7.10;;;;;;;19.27;65.52;102445.78;5052225;28;20415;-69
2022/10/18 02:16:50;;;;;;;10.43;7.20;;;;;;;19.26;65.28;102444.06;5032278;28;20045;-68
2022/10/18 02:19:37;;;;;;;9.40;7.28;;;;;;;19.24;65.36;102439.72;5032259;28;20049;-69
2022/10/18 02:22:06;;;;;;;10.10;7.40;;;;;;;19.23;65.34;102438.88;5032063;28;20129;-69
2022/10/18 02:24:42;;;;;;;11.30;7.45;;;;;;;19.22;65.56;102444.44;5039725;28;20120;-68
2022/10/18 02:27:09;;;;;;;14.27;8.48;;;;;;;19.21;65.47;102442.72;5052066;28;20033;-71
2022/10/18 02:29:36;;;;;;;12.27;7.45;;;;;;;19.21;65.08;102437.25;5051993;28;20126;-72
2022/10/18 02:32:10;;;;;;;10.98;7.82;;;;;;;19.21;65.53;102437.25;5051557;28;20057;-68
2022/10/18 02:34:43;;;;;;;13.00;8.23;;;;;;;19.21;65.13;102440.00;5051615;28;20380;-69
2022/10/18 02:37:12;;;;;;;13.45;8.20;;;;;;;19.20;65.20;102444.56;5051972;28;20044;-69
2022/10/18 02:39:44;;;;;;;13.02;7.35;;;;;;;19.20;65.58;102443.69;5051837;28;20064;-69
2022/10/18 02:42:12;;;;;;;10.80;8.70;;;;;;;19.20;65.30;102439.13;5051082;28;20045;-69
2022/10/18 02:44:40;;;;;;;8.90;7.63;;;;;;;19.20;65.46;102443.69;5051219;28;20110;-69
2022/10/18 02:47:09;;;;;;;12.85;7.75;;;;;;;19.21;65.26;102445.44;5051493;28;20045;-69
2022/10/18 02:49:36;;;;;;;13.50;7.78;;;;;;;19.22;65.41;102444.44;5051701;28;20075;-69
2022/10/18 02:52:02;;;;;;;14.98;8.77;;;;;;;19.22;65.16;102449.88;5051257;28;20045;-69
2022/10/18 02:54:30;;;;;;;10.30;7.97;;;;;;;19.21;65.42;102448.16;5051218;28;20465;-69
2022/10/18 02:56:57;;;;;;;8.70;7.70;;;;;;;19.20;65.31;102446.44;5051654;28;20442;-69
2022/10/18 02:59:23;;;;;;;11.98;7.85;;;;;;;19.19;65.52;102451.00;5051498;28;20041;-69
2022/10/18 03:01:50;;;;;;;11.02;7.80;;;;;;;19.19;65.39;102450.16;5051245;28;20495;-69
2022/10/18 03:04:19;;;;;;;10.05;7.50;;;;;;;19.19;65.60;102459.19;5051179;28;20059;-69
2022/10/18 03:06:46;;;;;;;10.88;7.50;;;;;;;19.20;65.46;102458.19;5052576;28;20095;-69
2022/10/18 03:09:13;;;;;;;8.05;7.10;;;;;;;19.21;65.49;102453.59;5052732;28;20072;-69
2022/10/18 03:11:39;;;;;;;12.18;7.10;;;;;;;19.20;65.46;102452.75;5051617;28;20056;-69
2022/10/18 03:14:13;;;;;;;8.65;7.35;;;;;;;19.20;65.18;102458.19;5051196;28;20430;-69
2022/10/18 03:16:40;;;;;;;10.65;7.47;;;;;;;19.20;65.31;102457.31;5051098;28;20037;-70
2022/10/18 03:19:06;;;;;;;13.40;8.18;;;;;;;19.20;65.15;102463.63;5051300;28;20483;-69
2022/10/18 03:21:33;;;;;;;15.95;8.65;;;;;;;19.20;65.30;102451.88;5050993;28;20041;-69
2022/10/18 03:24:02;;;;;;;12.35;8.05;;;;;;;19.17;65.14;102453.00;5049631;28;20396;-69
2022/10/18 03:26:28;;;;;;;18.42;8.70;;;;;;;19.18;65.40;102451.13;5051067;28;20052;-69
2022/10/18 03:28:55;;;;;;;12.55;8.57;;;;;;;19.18;65.52;102451.13;5051215;28;20045;-69
2022/10/18 03:31:22;;;;;;;10.77;8.95;;;;;;;19.17;65.61;102443.97;5050902;28;20041;-70
2022/10/18 03:33:48;;;;;;;10.55;8.88;;;;;;;19.17;65.36;102449.41;5051026;28;20074;-69
2022/10/18 03:36:15;;;;;;;12.93;9.25;;;;;;;19.15;65.73;102460.44;5050504;28;20073;-70
2022/10/18 03:38:41;;;;;;;10.50;8.45;;;;;;;19.15;65.55;102460.44;5051196;28;20033;-69
2022/10/18 03:41:08;;;;;;;16.48;9.15;;;;;;;19.14;65.63;102457.81;5050755;28;20045;-69
2022/10/18 03:43:35;;;;;;;16.15;10.85;;;;;;;19.13;65.64;102450.66;5050743;28;20403;-69
2022/10/18 03:46:01;;;;;;;15.65;11.18;;;;;;;19.10;65.40;102454.47;5050856;28;20545;-69
2022/10/18 03:48:28;;;;;;;15.57;11.05;;;;;;;19.08;65.76;102451.03;5051006;28;20049;-70
2022/10/18 03:50:54;;;;;;;13.30;9.82;;;;;;;19.10;65.62;102465.38;5050456;28;20040;-69
2022/10/18 03:53:21;;;;;;;12.77;9.60;;;;;;;19.10;65.65;102459.94;5050540;28;20045;-69
2022/10/18 03:55:54;;;;;;;16.73;10.15;;;;;;;19.10;65.80;102459.94;5054161;28;20134;-69
2022/10/18 03:58:22;;;;;;;13.30;10.48;;;;;;;19.08;65.89;102461.06;5054850;28;20045;-69
2022/10/18 04:00:50;;;;;;;12.13;9.85;;;;;;;19.07;65.61;102453.88;5054462;28;20041;-69
2022/10/18 04:03:17;;;;;;;15.65;10.20;;;;;;;19.09;65.53;102454.59;5054296;28;20041;-69
2022/10/18 04:05:49;;;;;;;13.50;10.20;;;;;;;19.08;65.66;102447.44;5054866;28;20291;-69
2022/10/18 04:08:16;;;;;;;14.77;10.95;;;;;;;19.07;65.57;102443.84;5053168;28;20041;-69
2022/10/18 04:10:44;;;;;;;16.83;10.55;;;;;;;19.07;65.63;102449.28;5054124;28;20041;-69
2022/10/18 04:13:11;;;;;;;14.13;10.75;;;;;;;19.06;65.64;102447.56;5053357;28;20048;-69
2022/10/18 04:15:38;;;;;;;13.52;11.02;;;;;;;19.07;65.60;102445.69;5054773;28;20040;-69
2022/10/18 04:18:05;;;;;;;12.32;10.00;;;;;;;19.07;65.85;102446.56;5054398;28;20442;-69
2022/10/18 04:20:31;;;;;;;19.70;10.25;;;;;;;19.05;65.53;102454.00;5053828;28;20107;-70
2022/10/18 04:22:58;;;;;;;10.60;9.23;;;;;;;19.05;65.73;102454.00;5054048;28;20361;-69
2022/10/18 04:25:25;;;;;;;15.55;11.02;;;;;;;19.01;65.74;102447.94;5054565;28;20045;-68
2022/10/18 04:27:52;;;;;;;14.00;10.07;;;;;;;19.02;65.55;102443.34;5054348;28;20071;-69
2022/10/18 04:30:18;;;;;;;12.27;10.45;;;;;;;19.01;65.41;102452.50;5053591;28;20106;-69
2022/10/18 04:32:45;;;;;;;21.45;11.90;;;;;;;19.01;65.41;102457.97;5054069;28;20052;-69
2022/10/18 04:35:12;;;;;;;12.57;10.35;;;;;;;18.99;65.33;102452.63;5054187;28;20049;-69
2022/10/18 04:37:39;;;;;;;12.65;9.52;;;;;;;18.98;65.51;102458.22;5054150;28;20076;-69
2022/10/18 04:40:06;;;;;;;11.90;9.48;;;;;;;18.97;65.54;102443.72;5053552;28;20041;-69
2022/10/18 04:42:33;;;;;;;12.00;9.77;;;;;;;18.98;65.51;102448.19;5053681;28;20098;-69
2022/10/18 04:45:01;;;;;;;20.60;11.25;;;;;;;18.97;65.59;102451.91;5054135;28;20041;-70
2022/10/18 04:47:27;;;;;;;17.83;11.68;;;;;;;18.98;65.28;102456.34;5053904;28;20033;-70
2022/10/18 04:49:54;;;;;;;26.27;12.85;;;;;;;18.98;65.50;102456.34;5053484;28;20049;-69
2022/10/18 04:52:21;;;;;;;21.83;12.55;;;;;;;18.99;65.48;102454.50;5053708;28;20053;-69
2022/10/18 04:54:50;;;;;;;25.38;13.90;;;;;;;18.99;65.57;102458.09;5053758;28;20041;-68
2022/10/18 04:57:17;;;;;;;32.85;14.65;;;;;;;18.99;65.57;102459.94;5053255;28;20154;-68
2022/10/18 04:59:43;;;;;;;31.55;15.25;;;;;;;19.00;65.80;102462.53;5053618;28;20083;-68
2022/10/18 05:02:10;;;;;;;25.48;14.02;;;;;;;18.99;65.62;102455.38;5053174;28;20057;-68
2022/10/18 05:04:37;;;;;;;25.42;14.38;;;;;;;18.99;65.68;102449.06;5053726;28;20040;-69
2022/10/18 05:07:05;;;;;;;28.45;15.50;;;;;;;18.99;65.50;102449.06;5052341;28;20388;-69
2022/10/18 05:09:32;;;;;;;44.72;18.35;;;;;;;19.00;65.70;102459.81;5053485;28;20040;-70
2022/10/18 05:11:59;;;;;;;78.53;22.23;;;;;;;19.01;65.73;102461.56;5053171;28;20044;-69
2022/10/18 05:14:27;;;;;;;45.58;18.75;;;;;;;19.01;65.54;102458.81;5053583;28;20095;-69
2022/10/18 05:16:53;;;;;;;27.33;16.00;;;;;;;19.03;65.55;102466.88;5052777;28;20426;-70
2022/10/18 05:19:20;;;;;;;36.75;18.48;;;;;;;19.02;65.75;102471.44;5053542;28;20091;-69
2022/10/18 05:21:46;;;;;;;29.67;14.98;;;;;;;19.02;65.80;102474.16;5052980;28;20041;-69
2022/10/18 05:24:15;;;;;;;44.38;19.55;;;;;;;19.01;65.61;102469.72;5053376;28;20079;-69
2022/10/18 05:26:41;;;;;;;54.63;21.23;;;;;;;19.00;65.52;102470.72;5053245;28;20041;-69
2022/10/18 05:29:08;;;;;;;23.17;15.27;;;;;;;19.01;65.78;102466.13;5052855;28;20480;-69
2022/10/18 05:31:35;;;;;;;25.85;16.58;;;;;;;19.02;65.76;102470.59;5053072;28;20056;-69
2022/10/18 05:34:04;;;;;;;24.23;15.40;;;;;;;19.02;65.67;102474.16;5053196;28;20065;-69
2022/10/18 05:36:31;;;;;;;26.92;15.73;;;;;;;19.02;65.66;102482.34;5052597;28;20045;-70
2022/10/18 05:38:57;;;;;;;30.88;16.30;;;;;;;19.03;65.91;102480.47;5052992;28;20103;-68
2022/10/18 05:41:29;;;;;;;40.10;17.98;;;;;;;19.00;65.50;102481.59;5052838;28;20371;-68
2022/10/18 05:44:05;;;;;;;42.97;17.00;;;;;;;18.95;65.48;102483.81;5052674;28;20040;-69
2022/10/18 05:46:31;;;;;;;;;;;;;;;18.93;65.67;102483.09;5052955;28;20045;-68
2022/10/18 05:48:58;;;;;;;22.00;15.95;;;;;;;18.92;65.48;102484.06;5052785;28;20448;-69
2022/10/18 05:51:24;;;;;;;39.22;17.92;;;;;;;18.86;65.72;102478.25;5052914;28;20033;-69
2022/10/18 05:53:59;;;;;;;29.65;15.95;;;;;;;18.79;65.74;102486.06;5052590;28;20114;-69
2022/10/18 05:56:26;;;;;;;46.72;20.13;;;;;;;18.75;65.75;102492.72;5052355;28;20096;-70
2022/10/18 05:58:54;;;;;;;30.80;16.50;;;;;;;18.75;66.12;102495.44;5052775;28;20067;-69
2022/10/18 06:01:20;;;;;;;34.42;17.25;;;;;;;18.76;66.05;102501.75;5052502;28;20099;-70
2022/10/18 06:03:47;;;;;;;52.72;20.23;;;;;;;18.75;65.97;102500.03;5051027;28;20102;-69
2022/10/18 06:06:14;;;;;;;61.22;23.75;;;;;;;18.77;65.94;102508.94;5050711;28;20095;-69
2022/10/18 06:08:42;;;;;;;63.63;22.85;;;;;;;18.77;65.96;102509.81;5052529;28;20094;-69
2022/10/18 06:11:14;;;;;;;34.40;17.17;;;;;;;18.78;66.27;102510.66;5052221;28;20032;-69
2022/10/18 06:13:42;;;;;;;107.07;28.45;;;;;;;18.78;65.94;102506.09;5052143;28;20091;-69
2022/10/18 06:16:11;;;;;;;32.70;17.27;;;;;;;18.78;66.35;102511.53;5051893;28;20103;-69
2022/10/18 06:18:38;;;;;;;59.15;18.80;;;;;;;18.78;65.98;102508.81;5051542;28;20514;-69
2022/10/18 06:21:05;;;;;;;69.50;24.08;;;;;;;18.79;66.10;102502.38;5051892;28;20045;-70
2022/10/18 06:23:32;;;;;;;46.38;20.17;;;;;;;18.78;66.20;102500.66;5050150;28;20033;-70
2022/10/18 06:26:00;;;;;;;79.45;25.50;;;;;;;18.81;65.97;102510.44;5051643;28;20075;-71
2022/10/18 06:28:28;;;;;;;53.55;21.02;;;;;;;18.78;66.02;102508.81;5052112;28;20391;-71
2022/10/18 06:30:56;;;;;;;83.68;24.50;;;;;;;18.78;66.27;102510.66;5051781;28;20045;-72
2022/10/18 06:33:23;;;;;;;57.55;22.08;;;;;;;18.76;66.24;102521.69;5051632;28;20029;-71
2022/10/18 06:35:58;;;;;;;47.28;19.40;;;;;;;18.75;66.19;102519.94;5051780;28;20102;-71
2022/10/18 06:38:25;;;;;;;;;;;;;;;18.76;66.30;102520.81;5052402;28;20538;-69
2022/10/18 06:40:53;;;;;;;46.75;19.65;;;;;;;18.75;66.24;102532.69;5051785;28;19964;-71
2022/10/18 06:43:20;;;;;;;102.45;28.75;;;;;;;18.71;66.11;102532.06;5051402;28;20091;-71
2022/10/18 06:45:47;;;;;;;26.15;17.45;;;;;;;18.67;66.40;102536.88;5051376;28;20048;-71
2022/10/18 06:48:15;;;;;;;63.95;22.80;;;;;;;18.65;66.37;102536.13;5040326;28;20045;-71
2022/10/18 06:50:42;;;;;;;49.08;21.60;;;;;;;18.66;66.26;102545.16;5051539;28;20045;-71
2022/10/18 06:53:08;;;;;;;45.97;20.38;;;;;;;18.66;66.59;102545.16;5051396;28;20033;-71
2022/10/18 06:55:36;;;;;;;33.58;18.35;;;;;;;18.67;66.41;102545.03;5051679;28;20449;-70
2022/10/18 06:58:05;;;;;;;52.40;22.92;;;;;;;18.68;66.20;102549.50;5051690;28;20043;-70
2022/10/18 07:00:32;;;;;;;81.78;27.83;;;;;;;18.70;66.42;102558.41;5051356;28;20087;-70
2022/10/18 07:02:58;;;;;;;33.50;19.17;;;;;;;18.71;66.67;102568.31;5051595;28;20041;-70
2022/10/18 07:05:25;;;;;;;37.05;18.17;;;;;;;18.72;66.57;102570.03;5051830;28;20364;-70
2022/10/18 07:07:52;;;;;;;43.10;20.00;;;;;;;18.73;66.63;102571.78;5051061;28;20094;-70
2022/10/18 07:10:22;;;;;;;42.80;19.27;;;;;;;18.72;66.62;102577.34;5051772;28;20365;-70
2022/10/18 07:12:50;;;;;;;53.65;20.42;;;;;;;18.71;66.52;102573.75;5051379;28;20091;-70
2022/10/18 07:15:23;;;;;;;54.55;21.10;;;;;;;18.69;66.80;102569.41;5051565;28;20071;-71
2022/10/18 07:17:50;;;;;;;60.25;22.88;;;;;;;18.70;66.46;102584.75;5051023;28;20098;-70
2022/10/18 07:20:16;;;;;;;41.45;21.27;;;;;;;18.70;66.54;102593.78;5051201;28;20037;-71
2022/10/18 07:22:43;;;;;;;36.47;19.77;;;;;;;18.70;66.73;102582.03;5050995;28;20049;-71
2022/10/18 07:25:11;;;;;;;40.08;20.17;;;;;;;18.75;66.72;102579.81;5051459;28;20075;-71
2022/10/18 07:27:41;;;;;;;53.03;22.52;;;;;;;18.77;66.57;102591.47;5051294;28;20495;-71
2022/10/18 07:30:09;;;;;;;49.85;22.33;;;;;;;18.79;66.64;102597.66;5049328;28;20045;-70
2022/10/18 07:32:36;;;;;;;40.78;20.40;;;;;;;18.80;66.75;102596.66;5050585;28;20504;-67
2022/10/18 07:35:03;;;;;;;38.25;20.88;;;;;;;18.82;66.84;102602.84;5051080;28;20053;-69
2022/10/18 07:37:30;;;;;;;39.58;20.63;;;;;;;18.84;66.84;102608.19;5049395;28;20494;-69
2022/10/18 07:39:57;;;;;;;43.25;22.42;;;;;;;18.85;66.74;102612.63;5050198;28;20045;-69
2022/10/18 07:42:23;;;;;;;49.72;23.08;;;;;;;18.85;66.91;102623.53;5050263;28;20041;-69
2022/10/18 07:44:50;;;;;;;42.33;21.67;;;;;;;18.85;66.76;102621.66;5050823;28;20095;-69
2022/10/18 07:47:17;;;;;;;50.30;22.35;;;;;;;18.85;66.64;102616.22;5051161;28;20461;-69
2022/10/18 07:49:43;;;;;;;39.55;22.08;;;;;;;18.86;66.92;102617.97;5050372;28;20483;-69
2022/10/18 07:52:10;;;;;;;37.13;20.23;;;;;;;18.89;67.08;102631.34;5050816;28;20069;-68
2022/10/18 07:54:41;;;;;;;37.60;21.00;;;;;;;18.88;66.95;102643.22;5050923;28;20045;-69
2022/10/18 07:57:08;;;;;;;35.65;19.55;;;;;;;18.87;67.16;102648.78;5050486;28;20511;-69
2022/10/18 07:59:34;;;;;;;32.55;19.98;;;;;;;18.88;67.07;102648.66;5050811;28;20041;-69
2022/10/18 08:02:01;;;;;;;33.75;19.95;;;;;;;18.88;66.83;102651.38;5050785;28;20462;-70
2022/10/18 08:04:29;;;;;;;37.97;19.40;;;;;;;18.90;66.99;102645.81;5050938;28;20562;-69
2022/10/18 08:06:55;;;;;;;37.40;19.70;;;;;;;18.92;67.11;102658.31;5050602;28;20037;-69
2022/10/18 08:09:22;;;;;;;34.63;20.08;;;;;;;18.96;66.94;102667.97;5049552;28;20033;-69
2022/10/18 08:11:48;;;;;;;32.13;19.48;;;;;;;19.01;67.13;102670.34;5050406;28;20041;-69
2022/10/18 08:14:16;;;;;;;31.15;19.42;;;;;;;19.05;66.81;102658.22;5050494;28;20041;-69
2022/10/18 08:16:42;;;;;;;34.42;19.70;;;;;;;19.12;66.80;102667.66;5050574;28;20053;-68
2022/10/18 08:19:09;;;;;;;33.88;20.73;;;;;;;19.17;66.87;102670.00;5048675;28;20446;-69
2022/10/18 08:21:36;;;;;;;33.25;21.75;;;;;;;19.21;66.99;102671.50;5049883;28;20049;-69
2022/10/18 08:24:04;;;;;;;38.80;23.48;;;;;;;19.26;66.72;102674.75;5049738;28;20041;-69
2022/10/18 08:26:31;;;;;;;33.53;21.27;;;;;;;19.31;67.13;102669.78;5050159;28;20051;-69
2022/10/18 08:28:57;;;;;;;35.72;21.17;;;;;;;19.33;66.93;102668.72;5049637;28;20052;-68
2022/10/18 08:31:44;;;;;;;43.22;24.20;;;;;;;19.41;66.82;102668.09;5047542;28;20037;-71
2022/10/18 08:34:14;;;;;;;39.78;24.08;;;;;;;19.45;66.67;102676.91;5050334;28;20064;-73
2022/10/18 08:36:45;;;;;;;44.20;25.17;;;;;;;19.48;66.40;102685.69;5049521;28;20053;-72
2022/10/18 08:39:11;;;;;;;36.38;23.23;;;;;;;19.48;66.42;102679.38;5049520;28;20071;-73
2022/10/18 08:42:10;;;;;;;35.80;23.52;;;;;;;19.50;66.32;102686.44;5050749;28;20045;-73
2022/10/18 08:44:48;;;;;;;33.22;20.40;;;;;;;19.51;66.06;102682.72;5042785;28;20057;-73
2022/10/18 08:47:40;;;;;;;35.42;20.90;;;;;;;19.50;66.07;102688.31;5053175;28;20467;-72
2022/10/18 08:50:15;;;;;;;31.70;18.90;;;;;;;19.54;65.96;102690.69;5050083;28;20049;-72
2022/10/18 08:53:09;;;;;;;32.75;19.75;;;;;;;19.57;66.25;102689.59;5053103;28;20048;-72
2022/10/18 08:55:44;;;;;;;33.50;20.00;;;;;;;19.67;66.30;102687.84;5033782;28;20160;-72
2022/10/18 08:58:18;;;;;;;30.80;19.52;;;;;;;19.79;66.53;102691.44;5040622;28;20060;-72
2022/10/18 09:01:22;;;;;;;27.08;16.90;;;;;;;19.92;66.21;102684.88;5053350;28;20091;-72
2022/10/18 09:04:20;;;;;;;28.25;16.88;;;;;;;20.07;66.11;102688.22;5040391;28;20521;-72
2022/10/18 09:07:15;;;;;;;27.77;15.80;;;;;;;20.24;65.80;102695.03;5053184;28;20499;-72
2022/10/18 09:09:53;;;;;;;21.40;15.07;;;;;;;20.35;65.35;102689.53;5052967;28;20095;-72
2022/10/18 09:12:44;;;;;;;25.02;15.32;;;;;;;20.45;65.38;102687.81;5052634;28;20045;-72
2022/10/18 09:15:28;;;;;;;24.25;15.65;;;;;;;20.60;64.99;102693.84;5053144;28;20056;-72
2022/10/18 09:18:03;;;;;;;24.95;13.40;;;;;;;20.69;64.75;102694.91;5052588;28;20037;-72
2022/10/18 09:20:46;;;;;;;22.38;14.20;;;;;;;20.73;64.54;102700.00;5051167;28;20427;-73
2022/10/18 09:23:21;;;;;;;23.35;15.48;;;;;;;20.76;63.98;102699.72;5051826;28;20053;-72
2022/10/18 09:25:59;;;;;;;;;;;;;;;20.81;64.12;102702.97;5053293;28;20052;-73
2022/10/18 09:28:48;;;;;;;23.60;14.13;;;;;;;20.92;64.04;102711.09;5052477;28;19970;-72
2022/10/18 09:31:27;;;;;;;25.52;14.75;;;;;;;20.96;63.63;102708.13;5052647;28;20170;-73
2022/10/18 09:34:22;;;;;;;22.15;14.98;;;;;;;20.98;63.31;102697.91;5052329;28;20438;-73
2022/10/18 09:36:51;;;;;;;26.80;14.90;;;;;;;21.05;63.29;102701.84;5047494;28;20052;-72
2022/10/18 09:39:22;;;;;;;24.55;14.27;;;;;;;21.12;63.16;102697.59;5052515;28;20102;-72
2022/10/18 09:41:56;;;;;;;22.83;13.68;;;;;;;21.18;62.99;102705.25;5051474;28;20091;-73
2022/10/18 09:44:40;;;;;;;22.52;13.93;;;;;;;21.17;62.43;102693.47;5052230;28;20072;-73
2022/10/18 09:47:13;;;;;;;20.38;12.13;;;;;;;21.23;62.52;102686.63;5051483;28;20106;-73
2022/10/18 09:49:50;;;;;;;23.20;13.30;;;;;;;21.31;62.25;102689.56;5051741;28;20292;-73
2022/10/18 09:52:41;;;;;;;25.48;13.15;;;;;;;21.42;61.83;102703.16;5051622;28;20041;-73
2022/10/18 09:55:29;;;;;;;19.08;12.43;;;;;;;21.50;61.67;102705.22;5052684;28;20045;-72
2022/10/18 09:58:01;;;;;;;25.65;12.65;;;;;;;21.62;61.54;102695.94;5051745;28;20037;-72
2022/10/18 10:00:32;;;;;;;17.83;11.60;;;;;;;21.74;61.52;102699.47;5051982;28;20104;-73
2022/10/18 10:03:00;;;;;;;20.63;12.75;;;;;;;21.84;61.02;102708.56;5051945;28;20533;-73
2022/10/18 10:05:27;;;;;;;25.48;13.38;;;;;;;21.91;61.00;102698.81;5052317;28;20052;-73
2022/10/18 10:07:58;;;;;;;17.98;12.88;;;;;;;22.02;60.81;102700.59;5052342;28;20048;-73
2022/10/18 10:10:28;;;;;;;17.25;11.63;;;;;;;22.14;60.65;102692.16;5051873;28;20044;-73
2022/10/18 10:13:16;;;;;;;22.20;11.43;;;;;;;22.26;60.13;102690.16;5051882;28;20048;-73
2022/10/18 10:15:52;;;;;;;20.83;10.30;;;;;;;22.35;59.83;102693.97;5052068;28;20491;-73
2022/10/18 10:18:22;;;;;;;16.65;9.15;;;;;;;22.43;59.73;102697.72;5051676;28;20045;-74
2022/10/18 10:20:57;;;;;;;16.15;7.90;;;;;;;22.51;59.29;102697.88;5051247;28;20102;-75
2022/10/18 10:23:31;;;;;;;19.17;8.95;;;;;;;22.64;58.89;102705.81;5051473;28;20490;-74
2022/10/18 10:26:03;;;;;;;16.85;7.60;;;;;;;22.74;58.64;102700.34;5052057;28;20114;-74
2022/10/18 10:28:36;;;;;;;14.80;7.72;;;;;;;22.79;58.18;102698.91;5051682;28;20037;-74
2022/10/18 10:31:24;;;;;;;12.30;6.25;;;;;;;22.85;57.63;102710.34;5051669;28;20517;-74
2022/10/18 10:34:11;;;;;;;9.82;5.90;;;;;;;22.92;57.47;102711.47;5050223;28;20099;-75
2022/10/18 10:36:53;;;;;;;12.05;5.80;;;;;;;22.99;56.97;102715.38;5050544;28;20044;-75
2022/10/18 10:39:22;;;;;;;13.00;6.10;;;;;;;23.03;56.80;102712.19;5051205;28;20103;-75
2022/10/18 10:41:56;;;;;;;9.93;5.47;;;;;;;23.08;56.46;102720.88;5051388;28;20043;-75
2022/10/18 10:44:31;;;;;;;15.43;6.40;;;;;;;23.13;56.33;102720.44;5051358;28;20053;-75
2022/10/18 10:46:58;;;;;;;10.07;4.78;;;;;;;23.21;55.89;102719.72;5051602;28;20538;-75
2022/10/18 10:49:46;;;;;;;11.20;6.03;;;;;;;23.30;55.58;102722.44;5050686;28;20100;-75
2022/10/18 10:52:18;;;;;;;11.60;6.15;;;;;;;23.37;55.33;102720.84;5051553;28;20051;-75
2022/10/18 10:54:56;;;;;;;13.80;6.47;;;;;;;23.40;54.86;102725.16;5051464;28;20045;-75
2022/10/18 10:57:46;;;;;;;13.57;5.50;;;;;;;23.48;54.77;102735.41;5051254;28;20456;-76
2022/10/18 11:00:51;;;;;;;11.48;5.15;;;;;;;23.53;54.30;102731.19;5051473;28;20430;-76
2022/10/18 11:03:20;;;;;;;11.18;4.80;;;;;;;23.62;54.22;102730.34;5028103;28;20092;-76
2022/10/18 11:06:00;;;;;;;15.80;5.10;;;;;;;23.71;53.98;102729.44;5028826;28;20052;-75
2022/10/18 11:08:32;;;;;;;11.63;5.13;;;;;;;23.79;53.58;102728.72;5041402;28;20049;-75
2022/10/18 11:11:25;;;;;;;6.90;3.55;;;;;;;23.85;52.96;102730.88;5050660;28;20071;-76
2022/10/18 11:14:02;;;;;;;10.60;4.00;;;;;;;23.88;52.38;102726.97;5050732;28;20044;-78
2022/10/18 11:17:01;;;;;;;7.45;3.40;;;;;;;23.92;52.27;102734.75;5048654;28;20103;-77
2022/10/18 11:19:42;;;;;;;8.45;3.65;;;;;;;23.98;52.16;102733.28;5051168;28;20041;-75
2022/10/18 11:22:13;;;;;;;7.22;3.83;;;;;;;24.06;51.97;102727.88;5049366;28;20473;-76
2022/10/18 11:24:42;;;;;;;8.95;3.58;;;;;;;24.11;51.73;102716.44;5051304;28;20484;-76
2022/10/18 11:27:31;;;;;;;6.70;3.40;;;;;;;24.14;51.24;102727.13;5050678;28;20549;-71
2022/10/18 11:30:19;;;;;;;7.68;3.20;;;;;;;24.18;51.38;102729.41;5050931;28;20033;-69
2022/10/18 11:33:05;;;;;;;11.07;3.42;;;;;;;24.24;51.02;102730.69;5050482;28;20041;-70
2022/10/18 11:35:46;;;;;;;8.63;2.80;;;;;;;24.31;51.10;102727.22;5049800;28;20060;-69